METAR Data
IDs: Format: Raw Decoded Include TAF

Data at: 1221 UTC 23 Mar 2019

KCWF 231145Z 00000KT 1/4SM FG OVC001 12/12 A3016
KCWF 231100Z 00000KT 1/4SM FG OVC001 11/11 A3013
KCWF 231035Z 00000KT 1/4SM OVC001 11/11 A3013 RMK AO2 T01080107 PWINO
KCWF 231015Z 00000KT 1/4SM OVC001 11/11 A3012 RMK AO2 T01140113 PWINO
KCWF 230955Z 00000KT 1/4SM OVC001 11/11 A3012 RMK AO2 T01090107 PWINO
KCWF 230935Z 00000KT 1/4SM OVC001 11/11 A3012 RMK AO2 T01090107 PWINO
KCWF 230915Z 00000KT M1/4SM OVC001 11/11 A3012 RMK AO2 T01070106 PWINO
KCWF 230855Z 09003KT M1/4SM OVC001 11/10 A3012 RMK AO2 T01060105 PWINO
KCWF 230835Z 09004KT 1/4SM OVC001 11/11 A3012 RMK AO2 T01100107 PWINO
KCWF 230815Z 08004KT 1/4SM OVC001 11/10 A3012 RMK AO2 T01060105 PWINO
KCWF 230755Z 08003KT 1 1/2SM VV007 11/11 A3013 RMK AO2 LTG DSNT NW T01120110 PWINO
KCWF 230735Z 00000KT 2SM CLR 11/11 A3012 RMK AO2 T01110108 PWINO
KCWF 230715Z 00000KT 3SM CLR 12/12 A3012 RMK AO2 T01190116 PWINO
KCWF 230655Z 09005KT 5SM CLR 11/11 A3012 RMK AO2 T01150111 PWINO
KCWF 230635Z 10004KT 2SM CLR 11/11 A3012 RMK AO2 T01150111 PWINO
KCWF 230615Z 10007KT 10SM CLR 11/11 A3012 RMK AO2 T01150108 PWINO
KCWF 230555Z 10007KT 7SM CLR 12/11 A3012 RMK AO2 T01180112 10221 20116 402630106 PWINO
KCWF 230535Z 10007KT 10SM CLR 12/12 A3013 RMK AO2 T01240117 PWINO
KCWF 230515Z 10008KT 10SM CLR 12/12 A3013 RMK AO2 T01250116 PWINO
KCWF 230455Z 13003KT 10SM CLR 13/11 A3013 RMK AO2 T01260114 PWINO
KCWF 230435Z 00000KT 10SM CLR 14/12 A3013 RMK AO2 T01360120 PWINO
KCWF 230415Z 00000KT 10SM CLR 14/12 A3014 RMK AO2 T01350117 PWINO
KCWF 230355Z 00000KT 10SM CLR 14/11 A3014 RMK AO2 T01370113 PWINO
KCWF 230335Z 00000KT 10SM CLR 14/12 A3014 RMK AO2 T01420117 PWINO
KCWF 230315Z 00000KT 10SM CLR 16/13 A3013 RMK AO2 T01650126 PWINO
KCWF 230245Z 00000KT 10SM SKC 17/12 A3012 RMK LAST
KCWF 222350Z 20009KT 10SM SKC 22/09 A3009
KCWF 222245Z 15006KT 10SM SKC 25/07 A3008
KCWF 222145Z 00000KT 10SM SKC 26/03 A3009
KCWF 222045Z 00000KT 10SM SKC 26/04 A3011
KCWF 221955Z 00000KT 10SM SKC 25/04 A3012
KCWF 221845Z 32006KT 10SM SKC 24/04 A3015
KCWF 221745Z 06004KT 10SM SKC 24/07 A3018
KCWF 221650Z 06004KT 10SM SKC 23/07 A3020
KCWF 221545Z 32007KT 10SM SKC 20/07 A3020
KCWF 221445Z 32007KT 10SM SKC 17/08 A3020
KCWF 221355Z 32007KT 10SM SKC 14/09 A3019
KCWF 221255Z 31004KT 10SM SKC 12/09 A3018
KCWF 221152Z 30007KT 10SM SKC 11/09 A3017
KCWF 221100Z 30007KT 10SM SKC 12/09 A3015
KCWF 221035Z 29004KT 10SM CLR 12/09 A3015 RMK AO2 T01210088 PWINO
KCWF 221015Z 29004KT 10SM CLR 13/09 A3015 RMK AO2 T01270092 PWINO
KCWF 220955Z 29004KT 10SM CLR 13/09 A3015 RMK AO2 T01300093 PWINO
KCWF 220935Z 29004KT 10SM CLR 12/09 A3015 RMK AO2 T01170086 PWINO
KCWF 220915Z 00000KT 10SM CLR 13/09 A3015 RMK AO2 T01290090 PWINO
KCWF 220855Z 27003KT 10SM CLR 13/09 A3014 RMK AO2 T01340094 PWINO
KCWF 220835Z 00000KT 10SM CLR 12/09 A3014 RMK AO2 T01250094 PWINO
KCWF 220815Z 00000KT 10SM CLR 13/10 A3014 RMK AO2 T01280096 PWINO
KCWF 220755Z 29003KT 10SM CLR 14/11 A3014 RMK AO2 T01370106 PWINO
KCWF 220735Z 27004KT 10SM CLR 14/11 A3014 RMK AO2 T01380110 PWINO
KCWF 220715Z 26003KT 10SM CLR 14/11 A3015 RMK AO2 T01380111 PWINO
KCWF 220655Z 24003KT 10SM CLR 14/11 A3015 RMK AO2 T01370110 PWINO
KCWF 220635Z 25004KT 10SM CLR 14/11 A3015 RMK AO2 T01400108 PWINO
KCWF 220615Z 24004KT 10SM CLR 14/11 A3015 RMK AO2 T01440110 PWINO
KCWF 220555Z 25004KT 10SM CLR 14/11 A3015 RMK AO2 T01420111 10194 20117 402400080 PWINO
KCWF 220535Z 24004KT 10SM CLR 14/11 A3015 RMK AO2 T01450110 PWINO
KCWF 220515Z 25005KT 10SM CLR 14/11 A3015 RMK AO2 T01410107 PWINO
KCWF 220455Z 23003KT 10SM CLR 14/10 A3015 RMK AO2 T01410102 PWINO
KCWF 220435Z 23003KT 10SM CLR 14/10 A3016 RMK AO2 T01450101 PWINO
KCWF 220415Z 24003KT 10SM CLR 15/10 A3016 RMK AO2 T01460101 PWINO
KCWF 220355Z 14003KT 10SM CLR 13/09 A3016 RMK AO2 T01350092 PWINO
KCWF 220335Z 00000KT 10SM CLR 15/10 A3016 RMK AO2 T01490096 PWINO
KCWF 220315Z 21004KT 10SM CLR 15/10 A3015 RMK AO2 T01520096 PWINO
KCWF 220245Z 24004KT 10SM SKC 16/09 A3015 RMK LAST